Hartville, Ohio
Current Conditions -  °F | °C
As of 7:51 PM on Monday 26 Jan 2015 (Local Time) from KCAK Reporting Station
Overcast Overcast  
Wind Chill:   Ceiling: 1200
Heat Index: 20°   Visibility: 10mi
Dew Point: 14°   Wind: 10mph
Humidity: 78%   Direction: 350°N
Pressure: 29.87"   Gusts: NA
Location:  40.96°N, 81.33°W
Report Text: KCAK 270051Z 35009KT 10SM OVC012 M07/M10 A2987 RMK AO2 SLP133 T10671100 $
Loading
Personal Weather Stations






























Interactive Weather Map New forecast layout! Learn more

10-Day Weather Forecast

Advertisements
Track Severe Weather on mobile